Time;durP1;ratioP1;P1;durP2;ratioP2;P2;SDS_P1;SDS_P2;PMS_P1;PMS_P2;Temp;Humidity;BMP_temperature;BMP_pressure;BME280_temperature;BME280_humidity;BME280_pressure;Samples;Min_cycle;Max_cycle;Signal;HPM_P1;HPM_P2
2023/07/21 00:00:23;;;;;;;13.63;7.55;;;;;;;;;;5095889;28;20114;-79
2023/07/21 00:02:49;;;;;;;15.93;6.88;;;;;;;;;;5095088;28;20116;-79
2023/07/21 00:05:16;;;;;;;14.50;7.00;;;;;;;;;;5095694;28;20028;-80
2023/07/21 00:07:42;;;;;;;15.52;5.90;;;;;;;;;;5096596;28;20490;-80
2023/07/21 00:10:09;;;;;;;13.57;5.90;;;;;;;;;;5096490;28;20032;-79
2023/07/21 00:12:36;;;;;;;11.02;5.47;;;;;;;;;;5096701;28;20051;-80
2023/07/21 00:15:03;;;;;;;16.90;6.60;;;;;;;;;;5096108;28;20459;-80
2023/07/21 00:17:29;;;;;;;13.73;6.15;;;;;;;;;;5096892;28;20031;-80
2023/07/21 00:19:56;;;;;;;15.20;6.18;;;;;;;;;;5095481;28;20050;-80
2023/07/21 00:22:22;;;;;;;19.65;6.28;;;;;;;;;;5095094;28;20044;-80
2023/07/21 00:24:48;;;;;;;17.80;5.15;;;;;;;;;;5095390;28;20024;-80
2023/07/21 00:27:16;;;;;;;13.48;6.43;;;;;;;;;;5096779;28;20093;-80
2023/07/21 00:29:42;;;;;;;18.17;5.57;;;;;;;;;;5095390;28;20023;-80
2023/07/21 00:32:09;;;;;;;14.90;5.70;;;;;;;;;;5096138;28;20031;-80
2023/07/21 00:34:37;;;;;;;16.08;5.70;;;;;;;;;;5094125;28;20695;-81
2023/07/21 00:37:04;;;;;;;11.77;5.18;;;;;;;;;;5094436;28;20020;-80
2023/07/21 00:39:30;;;;;;;14.57;5.95;;;;;;;;;;5087684;28;20024;-80
2023/07/21 00:41:57;;;;;;;12.13;5.47;;;;;;;;;;5094031;28;20020;-80
2023/07/21 00:44:23;;;;;;;15.00;6.25;;;;;;;;;;5095581;28;20028;-80
2023/07/21 00:46:49;;;;;;;12.70;5.80;;;;;;;;;;5095675;28;20020;-80
2023/07/21 00:49:15;;;;;;;17.85;5.82;;;;;;;;;;5093978;28;20526;-80
2023/07/21 00:51:42;;;;;;;17.13;5.90;;;;;;;;;;5095447;28;20348;-80
2023/07/21 00:54:08;;;;;;;15.32;5.88;;;;;;;;;;5094124;28;20478;-79
2023/07/21 00:56:34;;;;;;;13.20;6.22;;;;;;;;;;5094855;28;20024;-80
2023/07/21 00:59:00;;;;;;;12.95;6.00;;;;;;;;;;5095435;28;20085;-80
2023/07/21 01:01:27;;;;;;;12.02;6.18;;;;;;;;;;5095204;28;20020;-80
2023/07/21 01:03:53;;;;;;;12.90;6.15;;;;;;;;;;5094472;28;20024;-80
2023/07/21 01:06:19;;;;;;;14.80;6.28;;;;;;;;;;5094889;28;20023;-80
2023/07/21 01:08:46;;;;;;;17.67;5.78;;;;;;;;;;5094118;28;20020;-79
2023/07/21 01:11:13;;;;;;;14.18;6.43;;;;;;;;;;5093109;28;20020;-80
2023/07/21 01:13:40;;;;;;;18.98;6.50;;;;;;;;;;5095283;28;20076;-80
2023/07/21 01:16:08;;;;;;;10.90;5.82;;;;;;;;;;5094484;28;20077;-80
2023/07/21 01:18:34;;;;;;;14.90;6.55;;;;;;;;;;5093129;28;20118;-80
2023/07/21 01:21:02;;;;;;;14.88;5.88;;;;;;;;;;5095189;28;20534;-80
2023/07/21 01:23:35;;;;;;;21.98;6.10;;;;;;;;;;5093270;28;20453;-80
2023/07/21 01:26:01;;;;;;;17.02;6.90;;;;;;;;;;5094825;28;20032;-80
2023/07/21 01:28:28;;;;;;;15.65;6.75;;;;;;;;;;5095177;28;20020;-80
2023/07/21 01:30:56;;;;;;;15.35;6.47;;;;;;;;;;5093551;28;20111;-82
2023/07/21 01:33:22;;;;;;;26.83;8.15;;;;;;;;;;5094963;28;20378;-82
2023/07/21 01:35:49;;;;;;;18.15;6.88;;;;;;;;;;5094910;28;20028;-83
2023/07/21 01:38:16;;;;;;;18.05;6.82;;;;;;;;;;5094780;28;20024;-83
2023/07/21 01:40:43;;;;;;;23.33;6.30;;;;;;;;;;5094692;28;20385;-80
2023/07/21 01:43:11;;;;;;;17.75;6.57;;;;;;;;;;5094243;28;20044;-80
2023/07/21 01:45:38;;;;;;;17.63;5.95;;;;;;;;;;5092908;28;20370;-83
2023/07/21 01:48:05;;;;;;;17.83;6.63;;;;;;;;;;5092864;28;20085;-83
2023/07/21 01:50:31;;;;;;;10.57;5.72;;;;;;;;;;5093074;28;20542;-80
2023/07/21 01:53:00;;;;;;;11.73;6.10;;;;;;;;;;5093216;28;20085;-80
2023/07/21 01:55:29;;;;;;;18.25;7.22;;;;;;;;;;5092396;28;20035;-81
2023/07/21 01:58:01;;;;;;;16.13;6.30;;;;;;;;;;5092550;28;20055;-80
2023/07/21 02:00:27;;;;;;;;;;;;;;;;;;5091995;28;20020;-81
2023/07/21 02:02:53;;;;;;;10.75;5.90;;;;;;;;;;5094043;28;20247;-80
2023/07/21 02:05:20;;;;;;;24.60;6.07;;;;;;;;;;5094075;28;20058;-80
2023/07/21 02:07:46;;;;;;;20.45;5.50;;;;;;;;;;5092777;28;20032;-83
2023/07/21 02:10:12;;;;;;;12.48;5.40;;;;;;;;;;5093088;28;20026;-81
2023/07/21 02:12:39;;;;;;;14.27;6.35;;;;;;;;;;5093983;28;20024;-81
2023/07/21 02:15:06;;;;;;;12.18;5.22;;;;;;;;;;5093141;28;20499;-80
2023/07/21 02:17:33;;;;;;;16.45;5.43;;;;;;;;;;5094124;28;20424;-81
2023/07/21 02:19:59;;;;;;;19.40;6.57;;;;;;;;;;5094157;28;20020;-81
2023/07/21 02:22:25;;;;;;;11.70;6.07;;;;;;;;;;5093025;28;20024;-81
2023/07/21 02:24:51;;;;;;;14.05;6.45;;;;;;;;;;5094296;28;20034;-80
2023/07/21 02:27:18;;;;;;;10.68;5.43;;;;;;;;;;5093677;28;20024;-80
2023/07/21 02:29:50;;;;;;;12.13;5.75;;;;;;;;;;5094254;28;20067;-81
2023/07/21 02:32:16;;;;;;;12.63;5.55;;;;;;;;;;5092846;28;20055;-82
2023/07/21 02:34:43;;;;;;;17.92;7.13;;;;;;;;;;5093565;28;20416;-81
2023/07/21 02:37:09;;;;;;;13.13;5.85;;;;;;;;;;5093384;28;20096;-81
2023/07/21 02:39:35;;;;;;;15.70;6.13;;;;;;;;;;5093948;28;20020;-81
2023/07/21 02:42:01;;;;;;;13.13;5.85;;;;;;;;;;5091925;28;20024;-82
2023/07/21 02:44:27;;;;;;;14.05;6.05;;;;;;;;;;5093778;28;20024;-81
2023/07/21 02:46:54;;;;;;;10.70;5.97;;;;;;;;;;5092372;28;20024;-81
2023/07/21 02:49:20;;;;;;;12.48;6.07;;;;;;;;;;5093145;28;20028;-81
2023/07/21 02:51:46;;;;;;;12.93;6.15;;;;;;;;;;5092728;28;20026;-81
2023/07/21 02:54:12;;;;;;;12.05;5.97;;;;;;;;;;5092123;28;20031;-81
2023/07/21 02:56:39;;;;;;;25.08;6.65;;;;;;;;;;5092917;28;20099;-81
2023/07/21 02:59:05;;;;;;;16.23;6.38;;;;;;;;;;5093408;28;20028;-81
2023/07/21 03:01:31;;;;;;;18.77;6.88;;;;;;;;;;5092768;28;20048;-81
2023/07/21 03:03:57;;;;;;;12.18;7.10;;;;;;;;;;5092855;28;20020;-81
2023/07/21 03:06:23;;;;;;;12.93;7.32;;;;;;;;;;5091647;28;20455;-80
2023/07/21 03:08:49;;;;;;;12.10;6.95;;;;;;;;;;5092492;28;20054;-81
2023/07/21 03:11:17;;;;;;;15.38;7.38;;;22.20;99.90;;;;;;5092033;28;20035;-82
2023/07/21 03:13:46;;;;;;;16.90;6.35;;;22.10;99.90;;;;;;5093420;28;20027;-82
2023/07/21 03:16:12;;;;;;;16.65;7.43;;;22.10;99.90;;;;;;5092754;28;20035;-81
2023/07/21 03:18:39;;;;;;;14.70;7.10;;;22.10;99.90;;;;;;5085171;28;20039;-81
2023/07/21 03:21:05;;;;;;;15.20;6.93;;;22.00;99.90;;;;;;5095643;28;20024;-82
2023/07/21 03:23:30;;;;;;;18.45;6.60;;;22.00;99.90;;;;;;5095502;28;20077;-82
2023/07/21 03:25:56;;;;;;;14.05;7.00;;;22.00;99.90;;;;;;5096562;28;20073;-83
2023/07/21 03:28:23;;;;;;;17.10;6.85;;;22.00;99.90;;;;;;5096012;28;20055;-82
2023/07/21 03:31:02;;;;;;;12.55;5.80;;;22.00;99.90;;;;;;5095311;28;20031;-82
2023/07/21 03:33:28;;;;;;;23.08;6.50;;;22.00;99.90;;;;;;5097377;28;20024;-82
2023/07/21 03:36:02;;;;;;;16.48;6.45;;;22.00;99.90;;;;;;5095562;28;20465;-82
2023/07/21 03:38:29;;;;;;;18.10;6.97;;;22.00;99.90;;;;;;5095152;28;20092;-82
2023/07/21 03:41:05;;;;;;;10.20;5.63;;;21.90;99.90;;;;;;5094742;28;20064;-82
2023/07/21 03:43:32;;;;;;;10.18;6.13;;;21.90;99.90;;;;;;5094801;28;20016;-82
2023/07/21 03:45:59;;;;;;;15.18;5.85;;;21.90;99.90;;;;;;5095349;28;20024;-82
2023/07/21 03:48:29;;;;;;;17.73;5.60;;;21.90;99.90;;;;;;5095314;28;20039;-82
2023/07/21 03:51:02;;;;;;;16.17;5.45;;;21.90;99.90;;;;;;5106863;28;20082;-82
2023/07/21 03:53:29;;;;;;;10.55;5.75;;;21.80;99.90;;;;;;5094529;28;20453;-82
2023/07/21 03:55:55;;;;;;;16.02;6.07;;;21.80;99.90;;;;;;5096650;28;20032;-82
2023/07/21 03:58:21;;;;;;;14.13;5.63;;;21.90;99.90;;;;;;5094248;28;20048;-82
2023/07/21 04:00:47;;;;;;;9.48;5.25;;;21.90;99.90;;;;;;5094908;28;20047;-83
2023/07/21 04:03:14;;;;;;;12.02;5.15;;;21.90;99.90;;;;;;5094706;28;20028;-82
2023/07/21 04:05:40;;;;;;;8.35;4.75;;;21.90;99.90;;;;;;5090407;28;20032;-82
2023/07/21 04:08:06;;;;;;;13.13;5.03;;;21.90;99.90;;;;;;5096173;28;20035;-82
2023/07/21 04:10:33;;;;;;;11.38;5.28;;;21.90;99.90;;;;;;5095096;28;20035;-82
2023/07/21 04:12:59;;;;;;;10.60;5.07;;;21.90;99.90;;;;;;5096204;28;20073;-82
2023/07/21 04:15:25;;;;;;;12.82;5.07;;;21.90;99.90;;;;;;5095455;28;20028;-82
2023/07/21 04:17:54;;;;;;;12.23;4.75;;;21.90;99.90;;;;;;5096453;28;20036;-81
2023/07/21 04:20:22;;;;;;;14.25;5.47;;;21.90;99.90;;;;;;5094601;28;20475;-82
2023/07/21 04:22:49;;;;;;;11.90;5.28;;;22.00;99.90;;;;;;5094065;28;20066;-82
2023/07/21 04:25:17;;;;;;;14.07;5.15;;;22.10;99.90;;;;;;5095675;28;20027;-81
2023/07/21 04:27:47;;;;;;;10.55;5.10;;;;;;;;;;5096022;28;20111;-82
2023/07/21 04:30:13;;;;;;;12.93;5.30;;;;;;;;;;5093745;28;20048;-82
2023/07/21 04:32:39;;;;;;;12.98;4.93;;;;;;;;;;5095638;28;20497;-82
2023/07/21 04:35:08;;;;;;;14.25;4.78;;;;;;;;;;5094926;28;20085;-82
2023/07/21 04:37:35;;;;;;;10.23;4.40;;;;;;;;;;5096485;28;20032;-82
2023/07/21 04:40:01;;;;;;;8.48;4.57;;;;;;;;;;5094751;28;20020;-82
2023/07/21 04:42:27;;;;;;;8.48;5.13;;;;;;;;;;5094892;28;20031;-81
2023/07/21 04:44:53;;;;;;;10.77;4.88;;;;;;;;;;5094928;28;20057;-81
2023/07/21 04:47:21;;;;;;;12.13;4.57;;;;;;;;;;5094560;28;20028;-82
2023/07/21 04:49:48;;;;;;;10.82;4.70;;;22.80;99.90;;;;;;5094767;28;20481;-81
2023/07/21 04:52:14;;;;;;;12.98;4.45;;;;;;;;;;5095920;28;20024;-82
2023/07/21 04:54:40;;;;;;;10.60;4.50;;;;;;;;;;5095936;28;20035;-82
2023/07/21 04:57:07;;;;;;;9.05;3.95;;;;;;;;;;5094982;28;20044;-81
2023/07/21 04:59:33;;;;;;;10.75;3.97;;;;;;;;;;5093915;28;20031;-82
2023/07/21 05:01:59;;;;;;;13.85;4.57;;;;;;;;;;5095928;28;20099;-82
2023/07/21 05:04:25;;;;;;;13.30;5.07;;;;;;;;;;5094165;28;20115;-81
2023/07/21 05:06:51;;;;;;;9.88;4.03;;;;;;;;;;5095846;28;20017;-80
2023/07/21 05:09:19;;;;;;;13.55;5.40;;;;;;;;;;5096033;28;20032;-80
2023/07/21 05:11:46;;;;;;;11.35;4.75;;;;;;;;;;5095293;28;20473;-82
2023/07/21 05:14:13;;;;;;;13.15;4.90;;;;;;;;;;5095350;28;20028;-81
2023/07/21 05:16:39;;;;;;;10.60;4.55;;;;;;;;;;5095521;28;20032;-80
2023/07/21 05:19:06;;;;;;;8.02;4.03;;;;;;;;;;5094900;28;20361;-80
2023/07/21 05:21:32;;;;;;;12.35;4.00;;;;;;;;;;5095787;28;20466;-81
2023/07/21 05:23:58;;;;;;;9.32;4.65;;;;;;;;;;5094193;28;20477;-80
2023/07/21 05:26:24;;;;;;;17.15;5.05;;;;;;;;;;5094818;28;20031;-80
2023/07/21 05:28:52;;;;;;;14.80;5.25;;;;;;;;;;5095333;28;20481;-80
2023/07/21 05:31:19;;;;;;;13.05;4.80;;;;;;;;;;5095229;28;20031;-81
2023/07/21 05:33:45;;;;;;;12.30;4.63;;;;;;;;;;5093497;28;20381;-80
2023/07/21 05:36:11;;;;;;;14.85;5.07;;;;;;;;;;5094228;28;20358;-81
2023/07/21 05:38:38;;;;;;;17.02;5.15;;;;;;;;;;5093908;28;20031;-81
2023/07/21 05:41:04;;;;;;;13.05;5.00;;;;;;;;;;5094195;28;20114;-81
2023/07/21 05:43:31;;;;;;;10.75;4.40;;;;;;;;;;5094634;28;20028;-80
2023/07/21 05:45:57;;;;;;;11.45;4.63;;;;;;;;;;5093494;28;20351;-81
2023/07/21 05:48:26;;;;;;;11.43;4.70;;;;;;;;;;5094757;28;20032;-81
2023/07/21 05:50:52;;;;;;;9.63;3.83;;;;;;;;;;5094811;28;20020;-80
2023/07/21 05:53:19;;;;;;;8.55;3.88;;;;;;;;;;5094686;28;20038;-81
2023/07/21 05:55:46;;;;;;;10.32;3.80;;;;;;;;;;5094936;28;20032;-82
2023/07/21 05:58:13;;;;;;;11.70;4.50;;;;;;;;;;5094759;28;20098;-82
2023/07/21 06:00:39;;;;;;;7.78;3.38;;;;;;;;;;5093157;28;20028;-82
2023/07/21 06:03:05;;;;;;;6.47;3.83;;;;;;;;;;5093445;28;20020;-81
2023/07/21 06:05:36;;;;;;;9.40;3.95;;;;;;;;;;5093366;28;20027;-81
2023/07/21 06:08:04;;;;;;;8.93;3.08;;;;;;;;;;5094389;28;20027;-82
2023/07/21 06:10:30;;;;;;;7.07;3.90;;;;;;;;;;5094455;28;20116;-82
2023/07/21 06:12:56;;;;;;;7.18;3.72;;;;;;;;;;5093333;28;20024;-83
2023/07/21 06:15:24;;;;;;;9.13;3.92;;;;;;;;;;5094213;28;20024;-82
2023/07/21 06:17:50;;;;;;;8.93;3.67;;;;;;;;;;5093504;28;20351;-82
2023/07/21 06:20:16;;;;;;;7.28;3.53;;;;;;;;;;5094466;28;20020;-82
2023/07/21 06:22:43;;;;;;;8.75;3.40;;;;;;;;;;5092754;28;20024;-82
2023/07/21 06:25:09;;;;;;;10.07;3.67;;;;;;;;;;5094011;28;20024;-82
2023/07/21 06:27:35;;;;;;;13.00;3.63;;;;;;;;;;5093061;28;20036;-81
2023/07/21 06:30:01;;;;;;;5.78;3.20;;;;;;;;;;5092609;28;20023;-82
2023/07/21 06:32:27;;;;;;;9.32;4.25;;;;;;;;;;5092929;28;20036;-81
2023/07/21 06:34:54;;;;;;;8.27;3.75;;;;;;;;;;5094219;28;20046;-81
2023/07/21 06:37:20;;;;;;;6.95;3.70;;;;;;;;;;5093788;28;20478;-83
2023/07/21 06:39:50;;;;;;;7.45;3.58;;;;;;;;;;5092867;28;20035;-81
2023/07/21 06:42:17;;;;;;;13.13;4.23;;;;;;;;;;5092642;28;20024;-83
2023/07/21 06:44:43;;;;;;;7.65;4.22;;;;;;;;;;5092773;28;20027;-80
2023/07/21 06:47:11;;;;;;;10.00;4.45;;;;;;;;;;5094034;28;20027;-81
2023/07/21 06:49:38;;;;;;;8.85;3.67;;;;;;;;;;5092162;28;20051;-81
2023/07/21 06:52:04;;;;;;;7.78;4.28;;;;;;;;;;5092593;28;20442;-82
2023/07/21 06:54:31;;;;;;;9.50;3.95;;;;;;;;;;5092538;28;20020;-82
2023/07/21 06:57:00;;;;;;;7.43;4.30;;;;;;;;;;5091908;28;20069;-82
2023/07/21 06:59:26;;;;;;;10.57;4.22;;;;;;;;;;5093636;28;20028;-83
2023/07/21 07:01:52;;;;;;;9.10;3.15;;;;;;;;;;5092296;28;20031;-82
2023/07/21 07:04:18;;;;;;;8.90;3.65;;;;;;;;;;5093533;28;20111;-81
2023/07/21 07:06:45;;;;;;;8.18;3.58;;;;;;;;;;5092503;28;20028;-81
2023/07/21 07:09:11;;;;;;;12.05;5.20;;;;;;;;;;5093522;28;20047;-81
2023/07/21 07:11:37;;;;;;;5.93;3.40;;;;;;;;;;5092246;28;20084;-81
2023/07/21 07:14:03;;;;;;;10.20;3.60;;;;;;;;;;5093902;28;20024;-81
2023/07/21 07:16:30;;;;;;;6.57;3.15;;;;;;;;;;5092473;28;20051;-82
2023/07/21 07:18:56;;;;;;;9.75;2.60;;;;;;;;;;5092064;28;20367;-81
2023/07/21 07:21:22;;;;;;;10.45;3.20;;;;;;;;;;5092464;28;20024;-82
2023/07/21 07:23:48;;;;;;;6.43;2.95;;;;;;;;;;5092123;28;20024;-82
2023/07/21 07:26:14;;;;;;;6.10;2.88;;;;;;;;;;5092376;28;20028;-82
2023/07/21 07:28:40;;;;;;;4.45;2.72;;;;;;;;;;5092394;28;20028;-82
2023/07/21 07:31:06;;;;;;;7.85;3.22;;;;;;;;;;5093428;28;20016;-81
2023/07/21 07:33:33;;;;;;;6.80;3.80;;;;;;;;;;5092787;28;20111;-82
2023/07/21 07:35:59;;;;;;;5.32;2.85;;;;;;;;;;5092298;28;20043;-82
2023/07/21 07:38:27;;;;;;;7.10;3.03;;;;;;;;;;5093157;28;20112;-82
2023/07/21 07:40:55;;;;;;;7.53;3.30;;;;;;;;;;5093215;28;20048;-82
2023/07/21 07:43:21;;;;;;;5.60;3.08;;;;;;;;;;5093790;28;20028;-82
2023/07/21 07:48:23;;;;;;;6.90;3.05;;;;;;;;;;5126683;27;20329;-82
2023/07/21 07:50:51;;;;;;;5.60;2.90;;;;;;;;;;5110064;28;20118;-80
2023/07/21 07:53:18;;;;;;;6.75;2.80;;;;;;;;;;5110003;28;20028;-80
2023/07/21 07:55:44;;;;;;;7.07;3.33;;;;;;;;;;5111459;28;20020;-80
2023/07/21 07:58:11;;;;;;;4.78;2.72;;;;;;;;;;5108987;28;20036;-80
2023/07/21 08:00:38;;;;;;;5.70;2.75;;;;;;;;;;5099292;28;20069;-80
2023/07/21 08:03:11;;;;;;;8.00;3.00;;;;;;;;;;5107726;28;20458;-81
2023/07/21 08:05:39;;;;;;;10.68;3.58;;;;;;;;;;5108422;28;20035;-81
2023/07/21 08:08:05;;;;;;;6.00;3.17;;;;;;;;;;5110041;28;20385;-81
2023/07/21 08:10:31;;;;;;;5.82;2.60;;;;;;;;;;5109809;28;20355;-79
2023/07/21 08:12:59;;;;;;;5.38;3.28;;;;;;;;;;5110772;28;20024;-80
2023/07/21 08:15:28;;;;;;;5.95;3.00;;;;;;;;;;5089404;28;20025;-80
2023/07/21 08:17:54;;;;;;;9.93;3.53;;;;;;;;;;5107086;28;20027;-79
2023/07/21 09:37:50;;;;;;;5.78;2.92;;;;;;;;;;5166954;27;20311;-78
2023/07/21 09:40:17;;;;;;;6.97;2.72;;;;;;;;;;5152995;27;20023;-79
2023/07/21 09:42:43;;;;;;;5.32;2.70;;;;;;;;;;5152566;27;20019;-78
2023/07/21 09:45:10;;;;;;;11.07;3.00;;;;;;;;;;5152597;27;20014;-78
2023/07/21 09:47:39;;;;;;;8.52;3.08;;;;;;;;;;5134217;27;20023;-82
2023/07/21 09:50:05;;;;;;;7.55;3.17;;;;;;;;;;5152688;27;20023;-79
2023/07/21 09:52:37;;;;;;;7.05;2.88;;;;;;;;;;5152177;27;20042;-78
2023/07/21 09:55:16;;;;;;;6.07;2.63;;;;;;;;;;5134116;27;20046;-78
2023/07/21 09:57:44;;;;;;;8.23;3.20;;;;;;;;;;5152588;27;20456;-79
2023/07/21 10:00:14;;;;;;;7.30;2.55;;;;;;;;;;5152503;27;20027;-79
2023/07/21 10:02:45;;;;;;;8.68;3.03;;;;;;;;;;5133956;27;20019;-80
2023/07/21 10:05:12;;;;;;;7.07;2.97;;;;;;;;;;5150657;27;20019;-80
2023/07/21 10:07:39;;;;;;;5.38;2.90;;;;;;;;;;5113425;28;20016;-79
2023/07/21 10:10:07;;;;;;;5.05;2.72;;;;;;;;;;5132503;27;20018;-79
2023/07/21 10:12:49;;;;;;;7.15;3.20;;;;;;;;;;5133399;27;20050;-80
2023/07/21 10:15:21;;;;;;;5.63;3.10;;;;;;;;;;5151799;27;20341;-80
2023/07/21 10:17:56;;;;;;;8.40;3.75;;;;;;;;;;5152083;27;20019;-78
2023/07/21 10:20:37;;;;;;;6.55;2.55;;;;;;;;;;5151467;27;20011;-79
2023/07/21 10:23:03;;;;;;;9.88;3.42;;;;;;;;;;5151885;27;20569;-79
2023/07/21 10:25:29;;;;;;;6.63;3.58;;;;;;;;;;5132988;27;20023;-79
2023/07/21 10:28:04;;;;;;;7.30;3.78;;;;;;;;;;5133053;27;20030;-79
2023/07/21 10:30:30;;;;;;;4.55;3.40;;;;;;;;;;5151902;27;20030;-79
2023/07/21 10:33:10;;;;;;;6.90;2.97;;;;;;;;;;5151452;27;20084;-79
2023/07/21 10:35:37;;;;;;;5.80;3.20;;;;;;;;;;5151745;27;20034;-79
2023/07/21 10:38:15;;;;;;;11.23;3.97;;;;;;;;;;5133124;27;20037;-79
2023/07/21 10:40:42;;;;;;;9.68;4.05;;;;;;;;;;5151570;27;20054;-79
2023/07/21 10:43:08;;;;;;;13.68;3.75;;;;;;;;;;5151479;27;20687;-79
2023/07/21 10:45:35;;;;;;;10.10;3.60;;;;;;;;;;5133180;27;20062;-79
2023/07/21 10:48:13;;;;;;;7.68;3.88;;;;;;;;;;5125129;27;20334;-80
2023/07/21 10:50:42;;;;;;;9.15;3.58;;;;;;;;;;5118925;27;20048;-79
2023/07/21 10:53:08;;;;;;;8.77;3.92;;;;;;;;;;5136916;27;20388;-79
2023/07/21 10:55:38;;;;;;;12.15;3.80;;;;;;;;;;5137058;27;20019;-78
2023/07/21 10:58:04;;;;;;;6.97;3.55;;;;;;;;;;5137714;27;20046;-79
2023/07/21 11:00:31;;;;;;;6.85;3.80;;;;;;;;;;5118474;27;20505;-80
2023/07/21 11:02:57;;;;;;;9.15;3.45;;;;;;;;;;5137141;27;20026;-79
2023/07/21 11:05:23;;;;;;;7.05;3.85;;;;;;;;;;5137563;27;20026;-79
2023/07/21 11:07:49;;;;;;;6.80;3.55;;;;;;;;;;5137128;27;20023;-78
2023/07/21 11:10:16;;;;;;;8.68;2.92;;;;;;;;;;5119102;27;20087;-79
2023/07/21 11:12:42;;;;;;;11.88;3.45;;;;;;;;;;5118722;27;20019;-79
2023/07/21 11:15:11;;;;;;;8.18;3.17;;;;;;;;;;5136151;27;20056;-79
2023/07/21 11:17:39;;;;;;;5.82;3.20;;;;;;;;;;5136198;27;20011;-78
2023/07/21 11:20:06;;;;;;;5.85;3.08;;;;;;;;;;5137229;27;20110;-78
2023/07/21 11:22:34;;;;;;;9.80;3.15;;;;;;;;;;5117137;27;20027;-79
2023/07/21 11:25:10;;;;;;;9.65;3.05;;;;;;;;;;5118102;27;20019;-79
2023/07/21 11:27:42;;;;;;;5.35;3.17;;;;;;;;;;5117934;27;20019;-79
2023/07/21 11:30:08;;;;;;;6.65;3.45;;;;;;;;;;5136090;27;20035;-78
2023/07/21 11:32:35;;;;;;;8.32;3.15;;;;;;;;;;5117899;27;20031;-78
2023/07/21 11:35:04;;;;;;;10.07;3.30;;;;;;;;;;5136319;27;20019;-78
2023/07/21 11:37:38;;;;;;;6.05;3.33;;;;;;;;;;5136130;27;20445;-79
2023/07/21 11:40:13;;;;;;;8.25;3.08;;;;;;;;;;5136107;27;20046;-79
2023/07/21 11:42:46;;;;;;;8.00;3.10;;;;;;;;;;5136168;27;20379;-79
2023/07/21 11:45:30;;;;;;;13.38;3.47;;;;;;;;;;5136094;27;20023;-79
2023/07/21 11:47:57;;;;;;;6.20;3.10;;;;;;;;;;5135462;27;20015;-79
2023/07/21 11:50:24;;;;;;;6.85;3.22;;;;;;;;;;5135254;27;20070;-79
2023/07/21 11:52:52;;;;;;;9.60;3.05;;;;;;;;;;5117435;27;20394;-79
2023/07/21 11:55:18;;;;;;;7.70;3.13;;;;;;;;;;5117368;27;20072;-79
2023/07/21 11:57:44;;;;;;;9.15;3.10;;;;;;;;;;5117159;27;20019;-79
2023/07/21 12:00:11;;;;;;;7.15;2.90;;;;;;;;;;5134546;27;20022;-79
2023/07/21 12:02:38;;;;;;;8.50;3.28;;;;;;;;;;5136059;27;20076;-79
2023/07/21 12:05:05;;;;;;;8.30;3.22;;;;;;;;;;5116594;27;20445;-80
2023/07/21 12:07:31;;;;;;;9.13;3.20;;;;;;;;;;5135671;27;20027;-80
2023/07/21 12:10:00;;;;;;;5.95;3.30;;;;;;;;;;5135486;27;20026;-80
2023/07/21 12:12:26;;;;;;;10.38;3.25;;;;;;;;;;5116568;27;20023;-80
2023/07/21 12:14:52;;;;;;;10.10;3.15;;;;;;;;;;5117034;27;20027;-79
2023/07/21 12:17:18;;;;;;;10.70;3.05;;;;;;;;;;5135166;27;20025;-78
2023/07/21 12:19:45;;;;;;;5.53;2.83;;;;;;;;;;5116707;27;20023;-79
2023/07/21 12:22:11;;;;;;;8.23;3.45;;;;;;;;;;5116792;27;20027;-79
2023/07/21 12:24:37;;;;;;;12.15;3.40;;;;;;;;;;5117030;27;20039;-79
2023/07/21 12:27:04;;;;;;;8.27;2.58;;;;;;;;;;5116270;27;20072;-79
2023/07/21 12:29:30;;;;;;;8.73;3.30;;;;;;;;;;5117089;27;20012;-79
2023/07/21 12:31:56;;;;;;;9.25;3.80;;;;;;;;;;5135057;27;20061;-79
2023/07/21 12:34:23;;;;;;;7.38;2.95;;;;;;;;;;5127418;27;20023;-79
2023/07/21 12:36:49;;;;;;;6.57;2.97;;;;;;;;;;5100404;27;20413;-78
2023/07/21 12:39:17;;;;;;;8.48;3.22;;;;;;;;;;5134572;27;20505;-79
2023/07/21 12:41:43;;;;;;;8.82;3.22;;;;;;;;;;5116710;27;20027;-79
2023/07/21 12:44:09;;;;;;;5.25;3.20;;;;;;;;;;5134998;27;20015;-79
2023/07/21 12:46:35;;;;;;;8.13;3.05;;;;;;;;;;5134641;27;20103;-79
2023/07/21 12:49:01;;;;;;;7.85;3.10;;;;;;;;;;5135104;27;20019;-79
2023/07/21 12:51:28;;;;;;;11.45;2.83;;;;;;;;;;5116138;27;20022;-78
2023/07/21 12:53:54;;;;;;;10.15;3.67;;;;;;;;;;5134291;27;20102;-78
2023/07/21 12:56:20;;;;;;;9.88;3.28;;;;;;;;;;5115938;27;20022;-78
2023/07/21 12:58:46;;;;;;;8.13;3.15;;;;;;;;;;5133676;27;20384;-78
2023/07/21 13:01:12;;;;;;;7.72;2.97;;;;;;;;;;5133914;27;20043;-79
2023/07/21 13:03:38;;;;;;;9.88;3.38;;;;;;;;;;5133687;27;20507;-79
2023/07/21 13:06:05;;;;;;;12.30;3.25;;;;;;;;;;5133969;27;20031;-78
2023/07/21 13:08:31;;;;;;;9.30;2.75;;;;;;;;;;5134227;27;20099;-80
2023/07/21 13:10:58;;;;;;;6.90;3.25;;;;;;;;;;5134367;27;20321;-79
2023/07/21 13:13:24;;;;;;;9.25;3.58;;;;;;;;;;5119943;27;20027;-78
2023/07/21 13:15:50;;;;;;;7.40;3.13;;;;;;;;;;5134276;27;20084;-79
2023/07/21 13:18:16;;;;;;;9.27;3.42;;;;;;;;;;5134395;27;20019;-80
2023/07/21 13:20:43;;;;;;;5.13;3.13;;;;;;;;;;5115725;27;20367;-79
2023/07/21 13:23:09;;;;;;;7.68;3.25;;;;;;;;;;5133488;27;20020;-80
2023/07/21 13:25:35;;;;;;;9.20;3.65;;;;;;;;;;5133415;27;20023;-79
2023/07/21 13:28:01;;;;;;;9.48;3.50;;;;;;;;;;5115838;28;20110;-78
2023/07/21 13:30:28;;;;;;;8.95;3.38;;;;;;;;;;5133659;27;20019;-79
2023/07/21 13:32:54;;;;;;;9.20;3.25;;;;;;;;;;5133909;27;20023;-78
2023/07/21 13:35:20;;;;;;;7.65;3.45;;;;;;;;;;5133099;28;20019;-79
2023/07/21 13:37:46;;;;;;;9.55;3.28;;;;;;;;;;5114886;28;20023;-79
2023/07/21 13:40:12;;;;;;;10.32;3.63;;;;;;;;;;5133449;28;20418;-78
2023/07/21 13:42:38;;;;;;;9.07;3.58;;;;;;;;;;5113726;28;20025;-78
2023/07/21 13:45:05;;;;;;;13.00;3.20;;;;;;;;;;5115075;28;20334;-79
2023/07/21 13:47:32;;;;;;;6.20;3.10;;;;;;;;;;5106169;28;20520;-79
2023/07/21 13:49:58;;;;;;;6.88;3.22;;;;;;;;;;5125714;28;20023;-80
2023/07/21 13:52:24;;;;;;;7.82;3.58;;;;;;;;;;5129588;28;20132;-77
2023/07/21 13:54:51;;;;;;;16.85;4.80;;;;;;;;;;5109001;28;20020;-78
2023/07/21 13:57:17;;;;;;;9.38;4.03;;;;;;;;;;5132790;28;20023;-80
2023/07/21 13:59:44;;;;;;;6.03;3.08;;;;;;;;;;5123302;28;20103;-80
2023/07/21 14:02:10;;;;;;;7.10;3.63;;;;;;;;;;5129129;28;20413;-80
2023/07/21 14:04:37;;;;;;;12.13;3.72;;;;;;;;;;5124997;28;20109;-78
2023/07/21 14:07:04;;;;;;;10.02;3.40;;;;;;;;;;5115191;28;20457;-81
2023/07/21 14:09:31;;;;;;;6.57;3.15;;;;;;;;;;5133885;28;20019;-78
2023/07/21 14:11:57;;;;;;;5.72;2.90;;;;;;;;;;5131947;28;20030;-78
2023/07/21 14:14:23;;;;;;;11.70;3.38;;;;;;;;;;5133169;28;20046;-79
2023/07/21 14:16:50;;;;;;;5.25;3.10;;;;;;;;;;5132270;28;20593;-77
2023/07/21 14:19:16;;;;;;;8.02;3.47;;;;;;;;;;5133398;28;20064;-78
2023/07/21 14:21:42;;;;;;;8.57;3.95;;;;;;;;;;5133651;27;20094;-78
2023/07/21 14:24:08;;;;;;;8.93;4.00;;;;;;;;;;5118562;27;20018;-78
2023/07/21 14:26:35;;;;;;;9.52;3.08;;;;;;;;;;5137968;27;20371;-78
2023/07/21 14:29:01;;;;;;;11.88;3.50;;;;;;;;;;5137959;27;20019;-77
2023/07/21 14:31:27;;;;;;;7.35;3.25;;;;;;;;;;5137534;27;20464;-77
2023/07/21 14:33:54;;;;;;;9.38;3.50;;;;;;;;;;5137935;27;20019;-78
2023/07/21 14:36:20;;;;;;;7.63;3.45;;;;;;;;;;5137666;27;20513;-80
2023/07/21 14:38:46;;;;;;;6.72;3.38;;;;;;;;;;5114708;27;20023;-80
2023/07/21 14:41:12;;;;;;;12.40;4.53;;;;;;;;;;5131422;27;20076;-80
2023/07/21 14:43:38;;;;;;;8.02;3.78;;;;;;;;;;5131278;27;20406;-80
2023/07/21 14:46:04;;;;;;;11.32;3.80;;;;;;;;;;5125156;27;20034;-79
2023/07/21 14:48:30;;;;;;;12.80;3.83;;;;;;;;;;5135841;27;20038;-79
2023/07/21 14:50:59;;;;;;;10.57;3.70;;;;;;;;;;5126204;27;20054;-80
2023/07/21 14:53:25;;;;;;;10.65;3.88;;;;;;;;;;5127514;27;20038;-80
2023/07/21 14:55:52;;;;;;;9.07;4.00;;;;;;;;;;5119083;27;20058;-80
2023/07/21 14:58:19;;;;;;;9.32;3.80;;;;;;;;;;5136244;27;20050;-80
2023/07/21 15:00:45;;;;;;;8.95;3.35;;;;;;;;;;5106447;28;20030;-80
2023/07/21 15:03:11;;;;;;;9.50;3.50;;;;;;;;;;5121531;27;20016;-80
2023/07/21 15:05:37;;;;;;;11.80;4.85;;;;;;;;;;5123857;27;20048;-80
2023/07/21 15:08:03;;;;;;;11.73;4.20;;;;;;;;;;5136605;27;20424;-79
2023/07/21 15:10:29;;;;;;;14.65;3.85;;;;;;;;;;5137298;27;20011;-80
2023/07/21 15:12:56;;;;;;;10.63;3.20;;;;;;;;;;5117712;27;20106;-80
2023/07/21 15:15:22;;;;;;;9.35;3.20;;;;;;;;;;5135855;27;20507;-80
2023/07/21 15:17:48;;;;;;;6.32;3.47;;;;;;;;;;5116410;27;20038;-80
2023/07/21 15:20:17;;;;;;;8.45;3.75;;;;;;;;;;5134215;27;20011;-79
2023/07/21 15:22:47;;;;;;;12.90;4.57;;;;;;;;;;5134545;27;20341;-80
2023/07/21 15:25:14;;;;;;;10.07;3.72;;;;;;;;;;5134702;27;20024;-80
2023/07/21 15:27:40;;;;;;;8.82;3.80;;;;;;;;;;5133772;27;20019;-80
2023/07/21 15:30:06;;;;;;;4.63;3.13;;;;;;;;;;5134310;27;20019;-79
2023/07/21 15:32:33;;;;;;;7.35;3.38;;;;;;;;;;5129239;27;20460;-79
2023/07/21 15:34:59;;;;;;;7.15;3.13;;;;;;;;;;5135955;27;20047;-80
2023/07/21 15:37:25;;;;;;;7.38;2.92;;;;;;;;;;5135819;27;20045;-79
2023/07/21 15:39:51;;;;;;;11.15;3.80;;;;;;;;;;5136389;27;20019;-79
2023/07/21 15:42:17;;;;;;;8.43;3.50;;;;;;;;;;5117466;27;20022;-79
2023/07/21 15:44:43;;;;;;;8.02;3.67;;;;;;;;;;5136051;27;20079;-79